sensor_id;sensor_type;location;lat;lon;timestamp;P1;durP1;ratioP1;P2;durP2;ratioP2
53961;SDS011;39868;53.398;6.564;2023-04-06T00:01:20;4.97;;;3.17;;
53961;SDS011;39868;53.398;6.564;2023-04-06T00:03:47;6.50;;;3.50;;
53961;SDS011;39868;53.398;6.564;2023-04-06T00:06:14;5.80;;;3.13;;
53961;SDS011;39868;53.398;6.564;2023-04-06T00:08:43;4.83;;;3.47;;
53961;SDS011;39868;53.398;6.564;2023-04-06T00:11:11;6.73;;;3.80;;
53961;SDS011;39868;53.398;6.564;2023-04-06T00:13:38;5.90;;;3.47;;
53961;SDS011;39868;53.398;6.564;2023-04-06T00:16:05;6.10;;;3.00;;
53961;SDS011;39868;53.398;6.564;2023-04-06T00:18:33;10.47;;;4.23;;
53961;SDS011;39868;53.398;6.564;2023-04-06T00:21:00;7.43;;;3.37;;
53961;SDS011;39868;53.398;6.564;2023-04-06T00:23:28;5.57;;;3.13;;
53961;SDS011;39868;53.398;6.564;2023-04-06T00:25:55;6.77;;;3.57;;
53961;SDS011;39868;53.398;6.564;2023-04-06T00:28:22;9.57;;;4.00;;
53961;SDS011;39868;53.398;6.564;2023-04-06T00:30:53;6.33;;;3.53;;
53961;SDS011;39868;53.398;6.564;2023-04-06T00:33:22;7.33;;;3.93;;
53961;SDS011;39868;53.398;6.564;2023-04-06T00:35:50;5.57;;;3.60;;
53961;SDS011;39868;53.398;6.564;2023-04-06T00:38:17;5.40;;;3.60;;
53961;SDS011;39868;53.398;6.564;2023-04-06T00:40:45;9.07;;;4.20;;
53961;SDS011;39868;53.398;6.564;2023-04-06T00:43:12;9.27;;;3.53;;
53961;SDS011;39868;53.398;6.564;2023-04-06T00:45:41;7.50;;;3.60;;
53961;SDS011;39868;53.398;6.564;2023-04-06T00:48:10;6.77;;;3.73;;
53961;SDS011;39868;53.398;6.564;2023-04-06T00:50:37;5.17;;;3.17;;
53961;SDS011;39868;53.398;6.564;2023-04-06T00:53:04;10.57;;;4.07;;
53961;SDS011;39868;53.398;6.564;2023-04-06T00:55:31;6.80;;;3.30;;
53961;SDS011;39868;53.398;6.564;2023-04-06T00:58:00;7.83;;;3.50;;
53961;SDS011;39868;53.398;6.564;2023-04-06T01:00:33;7.13;;;3.17;;
53961;SDS011;39868;53.398;6.564;2023-04-06T01:03:01;6.87;;;3.67;;
53961;SDS011;39868;53.398;6.564;2023-04-06T01:05:36;7.10;;;3.47;;
53961;SDS011;39868;53.398;6.564;2023-04-06T01:08:16;6.93;;;3.80;;
53961;SDS011;39868;53.398;6.564;2023-04-06T01:10:44;6.80;;;4.40;;
53961;SDS011;39868;53.398;6.564;2023-04-06T01:13:21;8.23;;;3.87;;
53961;SDS011;39868;53.398;6.564;2023-04-06T01:15:54;6.73;;;3.10;;
53961;SDS011;39868;53.398;6.564;2023-04-06T01:18:29;11.47;;;4.03;;
53961;SDS011;39868;53.398;6.564;2023-04-06T01:21:12;6.50;;;3.63;;
53961;SDS011;39868;53.398;6.564;2023-04-06T01:23:59;7.87;;;3.87;;
53961;SDS011;39868;53.398;6.564;2023-04-06T01:26:34;7.13;;;4.63;;
53961;SDS011;39868;53.398;6.564;2023-04-06T01:29:07;7.33;;;3.57;;
53961;SDS011;39868;53.398;6.564;2023-04-06T01:31:35;6.50;;;3.57;;
53961;SDS011;39868;53.398;6.564;2023-04-06T01:34:03;9.43;;;3.50;;
53961;SDS011;39868;53.398;6.564;2023-04-06T01:36:32;6.03;;;3.87;;
53961;SDS011;39868;53.398;6.564;2023-04-06T01:39:20;8.37;;;3.90;;
53961;SDS011;39868;53.398;6.564;2023-04-06T01:41:48;8.43;;;3.73;;
53961;SDS011;39868;53.398;6.564;2023-04-06T01:44:17;7.60;;;3.97;;
53961;SDS011;39868;53.398;6.564;2023-04-06T01:46:51;7.37;;;3.87;;
53961;SDS011;39868;53.398;6.564;2023-04-06T01:49:18;8.10;;;4.67;;
53961;SDS011;39868;53.398;6.564;2023-04-06T01:51:51;9.40;;;4.22;;
53961;SDS011;39868;53.398;6.564;2023-04-06T01:54:21;8.47;;;4.13;;
53961;SDS011;39868;53.398;6.564;2023-04-06T01:56:59;8.00;;;3.83;;
53961;SDS011;39868;53.398;6.564;2023-04-06T01:59:34;7.43;;;4.37;;
53961;SDS011;39868;53.398;6.564;2023-04-06T02:02:07;7.40;;;4.17;;
53961;SDS011;39868;53.398;6.564;2023-04-06T02:04:36;8.97;;;4.40;;
53961;SDS011;39868;53.398;6.564;2023-04-06T02:07:09;10.32;;;4.55;;
53961;SDS011;39868;53.398;6.564;2023-04-06T02:09:36;8.03;;;3.87;;
53961;SDS011;39868;53.398;6.564;2023-04-06T02:12:08;5.57;;;3.57;;
53961;SDS011;39868;53.398;6.564;2023-04-06T02:14:35;7.97;;;4.17;;
53961;SDS011;39868;53.398;6.564;2023-04-06T02:17:03;7.17;;;3.90;;
53961;SDS011;39868;53.398;6.564;2023-04-06T02:19:30;6.30;;;3.90;;
53961;SDS011;39868;53.398;6.564;2023-04-06T02:21:58;6.27;;;3.87;;
53961;SDS011;39868;53.398;6.564;2023-04-06T02:24:25;7.90;;;4.00;;
53961;SDS011;39868;53.398;6.564;2023-04-06T02:26:52;9.53;;;4.37;;
53961;SDS011;39868;53.398;6.564;2023-04-06T02:29:19;7.50;;;4.30;;
53961;SDS011;39868;53.398;6.564;2023-04-06T02:31:47;9.83;;;4.00;;
53961;SDS011;39868;53.398;6.564;2023-04-06T02:34:16;7.97;;;3.20;;
53961;SDS011;39868;53.398;6.564;2023-04-06T02:36:49;6.73;;;4.10;;
53961;SDS011;39868;53.398;6.564;2023-04-06T02:39:16;7.30;;;3.87;;
53961;SDS011;39868;53.398;6.564;2023-04-06T02:41:44;7.00;;;4.37;;
53961;SDS011;39868;53.398;6.564;2023-04-06T02:44:16;7.43;;;3.77;;
53961;SDS011;39868;53.398;6.564;2023-04-06T02:46:43;6.73;;;3.63;;
53961;SDS011;39868;53.398;6.564;2023-04-06T02:49:12;7.10;;;4.13;;
53961;SDS011;39868;53.398;6.564;2023-04-06T02:51:40;8.20;;;4.17;;
53961;SDS011;39868;53.398;6.564;2023-04-06T02:54:33;9.87;;;3.80;;
53961;SDS011;39868;53.398;6.564;2023-04-06T02:57:03;6.27;;;3.93;;
53961;SDS011;39868;53.398;6.564;2023-04-06T02:59:37;6.57;;;4.30;;
53961;SDS011;39868;53.398;6.564;2023-04-06T03:02:11;8.33;;;4.30;;
53961;SDS011;39868;53.398;6.564;2023-04-06T03:04:39;8.17;;;4.73;;
53961;SDS011;39868;53.398;6.564;2023-04-06T03:07:16;6.27;;;4.07;;
53961;SDS011;39868;53.398;6.564;2023-04-06T03:09:43;7.73;;;3.83;;
53961;SDS011;39868;53.398;6.564;2023-04-06T03:12:11;5.23;;;3.97;;
53961;SDS011;39868;53.398;6.564;2023-04-06T03:17:32;5.07;;;3.83;;
53961;SDS011;39868;53.398;6.564;2023-04-06T03:20:03;9.20;;;4.50;;
53961;SDS011;39868;53.398;6.564;2023-04-06T03:22:31;9.60;;;4.40;;
53961;SDS011;39868;53.398;6.564;2023-04-06T03:25:00;10.10;;;4.03;;
53961;SDS011;39868;53.398;6.564;2023-04-06T03:27:30;7.87;;;4.50;;
53961;SDS011;39868;53.398;6.564;2023-04-06T03:29:59;5.47;;;4.33;;
53961;SDS011;39868;53.398;6.564;2023-04-06T03:32:32;10.50;;;5.03;;
53961;SDS011;39868;53.398;6.564;2023-04-06T03:35:01;8.20;;;4.50;;
53961;SDS011;39868;53.398;6.564;2023-04-06T03:37:30;8.90;;;4.37;;
53961;SDS011;39868;53.398;6.564;2023-04-06T03:40:01;7.43;;;4.53;;
53961;SDS011;39868;53.398;6.564;2023-04-06T03:42:29;8.07;;;4.53;;
53961;SDS011;39868;53.398;6.564;2023-04-06T03:45:02;10.43;;;4.37;;
53961;SDS011;39868;53.398;6.564;2023-04-06T03:47:31;11.77;;;4.30;;
53961;SDS011;39868;53.398;6.564;2023-04-06T03:50:02;8.17;;;4.30;;
53961;SDS011;39868;53.398;6.564;2023-04-06T03:52:34;8.83;;;4.40;;
53961;SDS011;39868;53.398;6.564;2023-04-06T03:55:01;8.57;;;4.73;;
53961;SDS011;39868;53.398;6.564;2023-04-06T03:57:29;6.83;;;3.97;;
53961;SDS011;39868;53.398;6.564;2023-04-06T03:59:56;9.33;;;4.90;;
53961;SDS011;39868;53.398;6.564;2023-04-06T04:02:25;10.90;;;5.03;;
53961;SDS011;39868;53.398;6.564;2023-04-06T04:04:52;10.20;;;4.50;;
53961;SDS011;39868;53.398;6.564;2023-04-06T04:07:20;7.30;;;4.60;;
53961;SDS011;39868;53.398;6.564;2023-04-06T04:09:47;6.20;;;4.10;;
53961;SDS011;39868;53.398;6.564;2023-04-06T04:12:14;9.80;;;4.70;;
53961;SDS011;39868;53.398;6.564;2023-04-06T04:14:43;9.73;;;4.93;;
53961;SDS011;39868;53.398;6.564;2023-04-06T04:17:10;12.70;;;4.87;;
53961;SDS011;39868;53.398;6.564;2023-04-06T04:19:37;7.73;;;4.50;;
53961;SDS011;39868;53.398;6.564;2023-04-06T04:22:05;11.30;;;5.17;;
53961;SDS011;39868;53.398;6.564;2023-04-06T04:24:37;9.27;;;4.97;;
53961;SDS011;39868;53.398;6.564;2023-04-06T04:27:05;10.17;;;5.47;;
53961;SDS011;39868;53.398;6.564;2023-04-06T04:29:38;12.40;;;5.40;;
53961;SDS011;39868;53.398;6.564;2023-04-06T04:32:08;8.03;;;5.03;;
53961;SDS011;39868;53.398;6.564;2023-04-06T04:34:36;11.23;;;5.50;;
53961;SDS011;39868;53.398;6.564;2023-04-06T04:37:11;8.57;;;4.37;;
53961;SDS011;39868;53.398;6.564;2023-04-06T04:39:47;8.53;;;5.53;;
53961;SDS011;39868;53.398;6.564;2023-04-06T04:42:15;14.37;;;5.60;;
53961;SDS011;39868;53.398;6.564;2023-04-06T04:44:48;8.93;;;4.57;;
53961;SDS011;39868;53.398;6.564;2023-04-06T04:47:27;11.43;;;4.80;;
53961;SDS011;39868;53.398;6.564;2023-04-06T04:49:55;7.50;;;4.90;;
53961;SDS011;39868;53.398;6.564;2023-04-06T04:52:24;7.43;;;4.73;;
53961;SDS011;39868;53.398;6.564;2023-04-06T04:55:16;9.10;;;5.27;;
53961;SDS011;39868;53.398;6.564;2023-04-06T04:57:50;8.97;;;5.13;;
53961;SDS011;39868;53.398;6.564;2023-04-06T05:00:22;8.30;;;4.77;;
53961;SDS011;39868;53.398;6.564;2023-04-06T05:02:53;10.93;;;5.10;;
53961;SDS011;39868;53.398;6.564;2023-04-06T05:05:34;12.60;;;5.97;;
53961;SDS011;39868;53.398;6.564;2023-04-06T05:08:03;8.70;;;4.87;;
53961;SDS011;39868;53.398;6.564;2023-04-06T05:10:40;11.20;;;5.70;;
53961;SDS011;39868;53.398;6.564;2023-04-06T05:13:07;12.27;;;6.10;;
53961;SDS011;39868;53.398;6.564;2023-04-06T05:15:35;9.23;;;5.17;;
53961;SDS011;39868;53.398;6.564;2023-04-06T05:18:21;9.50;;;5.90;;
53961;SDS011;39868;53.398;6.564;2023-04-06T05:20:49;9.87;;;5.80;;
53961;SDS011;39868;53.398;6.564;2023-04-06T05:23:23;7.07;;;4.47;;
53961;SDS011;39868;53.398;6.564;2023-04-06T05:25:52;12.47;;;5.67;;
53961;SDS011;39868;53.398;6.564;2023-04-06T05:28:21;8.27;;;4.93;;
53961;SDS011;39868;53.398;6.564;2023-04-06T05:30:49;9.63;;;5.17;;
53961;SDS011;39868;53.398;6.564;2023-04-06T05:33:17;9.83;;;5.10;;
53961;SDS011;39868;53.398;6.564;2023-04-06T05:36:07;10.07;;;5.40;;
53961;SDS011;39868;53.398;6.564;2023-04-06T05:38:39;8.80;;;4.70;;
53961;SDS011;39868;53.398;6.564;2023-04-06T05:41:16;10.10;;;5.13;;
53961;SDS011;39868;53.398;6.564;2023-04-06T05:43:44;10.87;;;5.33;;
53961;SDS011;39868;53.398;6.564;2023-04-06T05:46:11;8.70;;;4.73;;
53961;SDS011;39868;53.398;6.564;2023-04-06T05:48:40;8.77;;;4.77;;
53961;SDS011;39868;53.398;6.564;2023-04-06T05:51:09;10.00;;;5.37;;
53961;SDS011;39868;53.398;6.564;2023-04-06T05:53:43;6.27;;;4.57;;
53961;SDS011;39868;53.398;6.564;2023-04-06T05:56:11;11.37;;;5.77;;
53961;SDS011;39868;53.398;6.564;2023-04-06T05:58:41;8.67;;;4.83;;
53961;SDS011;39868;53.398;6.564;2023-04-06T06:01:11;7.90;;;4.85;;
53961;SDS011;39868;53.398;6.564;2023-04-06T06:03:44;9.52;;;5.32;;
53961;SDS011;39868;53.398;6.564;2023-04-06T06:06:12;9.37;;;5.30;;
53961;SDS011;39868;53.398;6.564;2023-04-06T06:09:02;10.43;;;4.80;;
53961;SDS011;39868;53.398;6.564;2023-04-06T06:11:34;9.40;;;5.17;;
53961;SDS011;39868;53.398;6.564;2023-04-06T06:14:02;10.07;;;4.50;;
53961;SDS011;39868;53.398;6.564;2023-04-06T06:16:33;8.57;;;4.83;;
53961;SDS011;39868;53.398;6.564;2023-04-06T06:19:01;10.03;;;4.33;;
53961;SDS011;39868;53.398;6.564;2023-04-06T06:21:29;7.80;;;4.33;;
53961;SDS011;39868;53.398;6.564;2023-04-06T06:23:58;10.20;;;4.97;;
53961;SDS011;39868;53.398;6.564;2023-04-06T06:26:25;7.63;;;4.43;;
53961;SDS011;39868;53.398;6.564;2023-04-06T06:28:54;9.07;;;5.07;;
53961;SDS011;39868;53.398;6.564;2023-04-06T06:31:22;7.90;;;4.47;;
53961;SDS011;39868;53.398;6.564;2023-04-06T06:33:51;11.40;;;5.07;;
53961;SDS011;39868;53.398;6.564;2023-04-06T06:36:19;9.27;;;3.87;;
53961;SDS011;39868;53.398;6.564;2023-04-06T06:38:47;8.90;;;4.10;;
53961;SDS011;39868;53.398;6.564;2023-04-06T06:41:17;6.97;;;4.30;;
53961;SDS011;39868;53.398;6.564;2023-04-06T06:43:45;7.03;;;4.73;;
53961;SDS011;39868;53.398;6.564;2023-04-06T06:46:12;9.47;;;4.80;;
53961;SDS011;39868;53.398;6.564;2023-04-06T06:48:40;7.07;;;4.30;;
53961;SDS011;39868;53.398;6.564;2023-04-06T06:51:08;8.63;;;5.00;;
53961;SDS011;39868;53.398;6.564;2023-04-06T06:53:39;11.37;;;4.60;;
53961;SDS011;39868;53.398;6.564;2023-04-06T06:56:06;7.90;;;4.40;;
53961;SDS011;39868;53.398;6.564;2023-04-06T06:58:34;7.93;;;4.70;;
53961;SDS011;39868;53.398;6.564;2023-04-06T07:01:01;8.63;;;4.00;;
53961;SDS011;39868;53.398;6.564;2023-04-06T07:03:30;8.70;;;4.10;;
53961;SDS011;39868;53.398;6.564;2023-04-06T07:05:58;9.07;;;4.17;;
53961;SDS011;39868;53.398;6.564;2023-04-06T07:08:26;10.33;;;4.23;;
53961;SDS011;39868;53.398;6.564;2023-04-06T07:10:53;7.93;;;4.60;;
53961;SDS011;39868;53.398;6.564;2023-04-06T07:13:23;8.30;;;4.90;;
53961;SDS011;39868;53.398;6.564;2023-04-06T07:15:54;5.63;;;3.63;;
53961;SDS011;39868;53.398;6.564;2023-04-06T07:18:22;7.90;;;4.17;;
53961;SDS011;39868;53.398;6.564;2023-04-06T07:20:49;7.77;;;4.50;;
53961;SDS011;39868;53.398;6.564;2023-04-06T07:23:17;8.50;;;5.27;;
53961;SDS011;39868;53.398;6.564;2023-04-06T07:25:45;8.17;;;4.90;;
53961;SDS011;39868;53.398;6.564;2023-04-06T07:28:13;8.47;;;4.63;;
53961;SDS011;39868;53.398;6.564;2023-04-06T07:30:40;8.37;;;5.30;;
53961;SDS011;39868;53.398;6.564;2023-04-06T07:33:09;6.97;;;4.63;;
53961;SDS011;39868;53.398;6.564;2023-04-06T07:35:38;10.67;;;5.27;;
53961;SDS011;39868;53.398;6.564;2023-04-06T07:38:06;7.67;;;4.60;;
53961;SDS011;39868;53.398;6.564;2023-04-06T07:40:34;7.87;;;4.37;;
53961;SDS011;39868;53.398;6.564;2023-04-06T07:43:02;8.40;;;4.90;;
53961;SDS011;39868;53.398;6.564;2023-04-06T07:45:30;7.53;;;4.73;;
53961;SDS011;39868;53.398;6.564;2023-04-06T07:47:59;10.07;;;5.17;;
53961;SDS011;39868;53.398;6.564;2023-04-06T07:50:27;6.17;;;4.57;;
53961;SDS011;39868;53.398;6.564;2023-04-06T07:52:55;5.37;;;4.27;;
53961;SDS011;39868;53.398;6.564;2023-04-06T07:55:24;8.17;;;5.20;;
53961;SDS011;39868;53.398;6.564;2023-04-06T07:57:51;8.60;;;4.93;;
53961;SDS011;39868;53.398;6.564;2023-04-06T08:00:19;8.50;;;5.10;;
53961;SDS011;39868;53.398;6.564;2023-04-06T08:02:47;10.27;;;5.40;;
53961;SDS011;39868;53.398;6.564;2023-04-06T08:05:14;9.13;;;5.17;;
53961;SDS011;39868;53.398;6.564;2023-04-06T08:07:42;6.60;;;4.73;;
53961;SDS011;39868;53.398;6.564;2023-04-06T08:10:09;7.00;;;4.70;;
53961;SDS011;39868;53.398;6.564;2023-04-06T08:12:37;8.50;;;5.27;;
53961;SDS011;39868;53.398;6.564;2023-04-06T08:15:04;9.82;;;4.50;;
53961;SDS011;39868;53.398;6.564;2023-04-06T08:17:32;8.38;;;5.00;;
53961;SDS011;39868;53.398;6.564;2023-04-06T08:20:00;6.53;;;4.40;;
53961;SDS011;39868;53.398;6.564;2023-04-06T08:22:30;7.60;;;4.63;;
53961;SDS011;39868;53.398;6.564;2023-04-06T08:25:00;7.70;;;4.43;;
53961;SDS011;39868;53.398;6.564;2023-04-06T08:27:28;6.78;;;4.60;;
53961;SDS011;39868;53.398;6.564;2023-04-06T08:29:55;6.35;;;4.68;;
53961;SDS011;39868;53.398;6.564;2023-04-06T08:32:23;7.28;;;4.70;;
53961;SDS011;39868;53.398;6.564;2023-04-06T08:34:54;8.18;;;4.32;;
53961;SDS011;39868;53.398;6.564;2023-04-06T08:37:22;6.95;;;4.55;;
53961;SDS011;39868;53.398;6.564;2023-04-06T08:39:50;8.20;;;5.05;;
53961;SDS011;39868;53.398;6.564;2023-04-06T08:42:21;7.00;;;4.70;;
53961;SDS011;39868;53.398;6.564;2023-04-06T08:44:51;5.90;;;4.25;;
53961;SDS011;39868;53.398;6.564;2023-04-06T08:47:20;6.20;;;4.30;;
53961;SDS011;39868;53.398;6.564;2023-04-06T08:49:50;6.90;;;4.90;;
53961;SDS011;39868;53.398;6.564;2023-04-06T08:52:19;13.02;;;5.18;;
53961;SDS011;39868;53.398;6.564;2023-04-06T08:54:47;9.15;;;5.25;;
53961;SDS011;39868;53.398;6.564;2023-04-06T08:57:14;7.50;;;4.85;;
53961;SDS011;39868;53.398;6.564;2023-04-06T08:59:43;6.88;;;4.82;;
53961;SDS011;39868;53.398;6.564;2023-04-06T09:02:12;7.80;;;4.97;;
53961;SDS011;39868;53.398;6.564;2023-04-06T09:04:52;5.55;;;4.32;;
53961;SDS011;39868;53.398;6.564;2023-04-06T09:07:20;7.70;;;4.82;;
53961;SDS011;39868;53.398;6.564;2023-04-06T09:09:48;7.15;;;5.30;;
53961;SDS011;39868;53.398;6.564;2023-04-06T09:12:29;8.80;;;5.68;;
53961;SDS011;39868;53.398;6.564;2023-04-06T09:14:57;6.03;;;5.03;;
53961;SDS011;39868;53.398;6.564;2023-04-06T09:17:30;7.35;;;5.15;;
53961;SDS011;39868;53.398;6.564;2023-04-06T09:20:00;6.97;;;5.35;;
53961;SDS011;39868;53.398;6.564;2023-04-06T09:22:38;9.25;;;5.30;;
53961;SDS011;39868;53.398;6.564;2023-04-06T09:25:08;7.55;;;5.05;;
53961;SDS011;39868;53.398;6.564;2023-04-06T09:27:37;7.68;;;5.53;;
53961;SDS011;39868;53.398;6.564;2023-04-06T09:32:32;9.52;;;5.78;;
53961;SDS011;39868;53.398;6.564;2023-04-06T09:35:12;8.27;;;5.38;;
53961;SDS011;39868;53.398;6.564;2023-04-06T09:37:41;8.13;;;5.15;;
53961;SDS011;39868;53.398;6.564;2023-04-06T09:40:12;9.07;;;5.37;;
53961;SDS011;39868;53.398;6.564;2023-04-06T09:42:41;8.60;;;5.43;;
53961;SDS011;39868;53.398;6.564;2023-04-06T09:45:09;6.75;;;4.72;;
53961;SDS011;39868;53.398;6.564;2023-04-06T09:47:37;7.95;;;5.32;;
53961;SDS011;39868;53.398;6.564;2023-04-06T09:50:08;5.78;;;4.53;;
53961;SDS011;39868;53.398;6.564;2023-04-06T09:52:41;8.88;;;5.90;;
53961;SDS011;39868;53.398;6.564;2023-04-06T09:55:17;7.78;;;4.78;;
53961;SDS011;39868;53.398;6.564;2023-04-06T09:58:06;10.82;;;5.70;;
53961;SDS011;39868;53.398;6.564;2023-04-06T10:00:43;7.70;;;5.10;;
53961;SDS011;39868;53.398;6.564;2023-04-06T10:05:52;10.02;;;5.38;;
53961;SDS011;39868;53.398;6.564;2023-04-06T10:08:27;7.63;;;5.47;;
53961;SDS011;39868;53.398;6.564;2023-04-06T10:10:58;9.75;;;5.43;;
53961;SDS011;39868;53.398;6.564;2023-04-06T10:13:27;6.88;;;4.88;;
53961;SDS011;39868;53.398;6.564;2023-04-06T10:15:55;8.55;;;5.43;;
53961;SDS011;39868;53.398;6.564;2023-04-06T10:18:22;8.95;;;5.50;;
53961;SDS011;39868;53.398;6.564;2023-04-06T10:21:11;9.50;;;6.00;;
53961;SDS011;39868;53.398;6.564;2023-04-06T10:23:48;8.18;;;5.45;;
53961;SDS011;39868;53.398;6.564;2023-04-06T10:26:22;9.15;;;5.90;;
53961;SDS011;39868;53.398;6.564;2023-04-06T10:28:49;8.55;;;6.28;;
53961;SDS011;39868;53.398;6.564;2023-04-06T10:31:24;8.18;;;6.00;;
53961;SDS011;39868;53.398;6.564;2023-04-06T10:33:59;11.73;;;5.50;;
53961;SDS011;39868;53.398;6.564;2023-04-06T10:36:28;9.43;;;5.72;;
53961;SDS011;39868;53.398;6.564;2023-04-06T10:39:00;10.15;;;5.80;;
53961;SDS011;39868;53.398;6.564;2023-04-06T10:41:52;9.90;;;6.45;;
53961;SDS011;39868;53.398;6.564;2023-04-06T10:44:23;10.45;;;6.63;;
53961;SDS011;39868;53.398;6.564;2023-04-06T10:46:57;11.68;;;6.60;;
53961;SDS011;39868;53.398;6.564;2023-04-06T10:49:28;9.02;;;6.32;;
53961;SDS011;39868;53.398;6.564;2023-04-06T10:51:55;10.55;;;6.60;;
53961;SDS011;39868;53.398;6.564;2023-04-06T10:54:24;8.63;;;6.55;;
53961;SDS011;39868;53.398;6.564;2023-04-06T10:56:52;12.30;;;6.95;;
53961;SDS011;39868;53.398;6.564;2023-04-06T10:59:20;10.38;;;7.18;;
53961;SDS011;39868;53.398;6.564;2023-04-06T11:01:48;13.05;;;7.35;;
53961;SDS011;39868;53.398;6.564;2023-04-06T11:04:17;11.02;;;6.97;;
53961;SDS011;39868;53.398;6.564;2023-04-06T11:06:47;12.02;;;7.22;;
53961;SDS011;39868;53.398;6.564;2023-04-06T11:11:53;14.05;;;7.93;;
53961;SDS011;39868;53.398;6.564;2023-04-06T11:14:21;13.00;;;7.78;;
53961;SDS011;39868;53.398;6.564;2023-04-06T11:16:48;13.15;;;8.00;;
53961;SDS011;39868;53.398;6.564;2023-04-06T11:19:17;13.00;;;7.80;;
53961;SDS011;39868;53.398;6.564;2023-04-06T11:21:45;12.27;;;8.50;;
53961;SDS011;39868;53.398;6.564;2023-04-06T11:24:21;12.00;;;7.65;;
53961;SDS011;39868;53.398;6.564;2023-04-06T11:26:50;11.43;;;7.30;;
53961;SDS011;39868;53.398;6.564;2023-04-06T11:29:19;13.75;;;8.23;;
53961;SDS011;39868;53.398;6.564;2023-04-06T11:31:49;13.40;;;8.18;;
53961;SDS011;39868;53.398;6.564;2023-04-06T11:34:20;15.38;;;8.93;;
53961;SDS011;39868;53.398;6.564;2023-04-06T11:36:53;15.93;;;9.43;;
53961;SDS011;39868;53.398;6.564;2023-04-06T11:39:24;14.50;;;9.32;;
53961;SDS011;39868;53.398;6.564;2023-04-06T11:41:55;15.57;;;8.55;;
53961;SDS011;39868;53.398;6.564;2023-04-06T11:44:32;12.32;;;8.38;;
53961;SDS011;39868;53.398;6.564;2023-04-06T11:47:12;15.32;;;8.60;;
53961;SDS011;39868;53.398;6.564;2023-04-06T11:49:40;11.48;;;8.25;;
53961;SDS011;39868;53.398;6.564;2023-04-06T11:52:15;15.10;;;8.85;;
53961;SDS011;39868;53.398;6.564;2023-04-06T11:54:44;18.13;;;9.95;;
53961;SDS011;39868;53.398;6.564;2023-04-06T11:57:13;15.77;;;9.25;;
53961;SDS011;39868;53.398;6.564;2023-04-06T11:59:41;17.23;;;9.18;;
53961;SDS011;39868;53.398;6.564;2023-04-06T12:02:09;15.63;;;8.95;;
53961;SDS011;39868;53.398;6.564;2023-04-06T12:04:37;15.02;;;8.40;;
53961;SDS011;39868;53.398;6.564;2023-04-06T12:07:05;16.65;;;9.90;;
53961;SDS011;39868;53.398;6.564;2023-04-06T12:09:33;16.15;;;9.32;;
53961;SDS011;39868;53.398;6.564;2023-04-06T12:12:01;15.10;;;10.00;;
53961;SDS011;39868;53.398;6.564;2023-04-06T12:14:28;13.80;;;9.38;;
53961;SDS011;39868;53.398;6.564;2023-04-06T12:16:57;15.70;;;8.93;;
53961;SDS011;39868;53.398;6.564;2023-04-06T12:19:25;23.85;;;11.85;;
53961;SDS011;39868;53.398;6.564;2023-04-06T12:21:53;20.52;;;12.32;;
53961;SDS011;39868;53.398;6.564;2023-04-06T12:24:24;20.60;;;11.57;;
53961;SDS011;39868;53.398;6.564;2023-04-06T12:26:52;20.00;;;11.30;;
53961;SDS011;39868;53.398;6.564;2023-04-06T12:29:35;18.80;;;11.73;;
53961;SDS011;39868;53.398;6.564;2023-04-06T12:32:02;21.00;;;11.98;;
53961;SDS011;39868;53.398;6.564;2023-04-06T12:34:29;20.42;;;11.55;;
53961;SDS011;39868;53.398;6.564;2023-04-06T12:36:57;24.92;;;11.85;;
53961;SDS011;39868;53.398;6.564;2023-04-06T12:39:24;22.60;;;11.88;;
53961;SDS011;39868;53.398;6.564;2023-04-06T12:41:52;21.70;;;11.32;;
53961;SDS011;39868;53.398;6.564;2023-04-06T12:44:20;18.98;;;11.18;;
53961;SDS011;39868;53.398;6.564;2023-04-06T12:46:50;18.65;;;11.23;;
53961;SDS011;39868;53.398;6.564;2023-04-06T12:49:18;24.10;;;12.52;;
53961;SDS011;39868;53.398;6.564;2023-04-06T12:51:45;22.98;;;12.40;;
53961;SDS011;39868;53.398;6.564;2023-04-06T12:54:13;20.13;;;11.48;;
53961;SDS011;39868;53.398;6.564;2023-04-06T12:56:40;22.17;;;11.27;;
53961;SDS011;39868;53.398;6.564;2023-04-06T12:59:07;20.40;;;11.20;;
53961;SDS011;39868;53.398;6.564;2023-04-06T13:01:35;19.38;;;11.18;;
53961;SDS011;39868;53.398;6.564;2023-04-06T13:04:02;20.67;;;11.55;;
53961;SDS011;39868;53.398;6.564;2023-04-06T13:06:29;18.50;;;10.27;;
53961;SDS011;39868;53.398;6.564;2023-04-06T13:08:57;23.25;;;13.02;;
53961;SDS011;39868;53.398;6.564;2023-04-06T13:11:25;22.88;;;11.50;;
53961;SDS011;39868;53.398;6.564;2023-04-06T13:13:54;24.15;;;12.55;;
53961;SDS011;39868;53.398;6.564;2023-04-06T13:16:21;21.50;;;11.45;;
53961;SDS011;39868;53.398;6.564;2023-04-06T13:18:49;23.67;;;11.80;;
53961;SDS011;39868;53.398;6.564;2023-04-06T13:21:16;22.48;;;12.35;;
53961;SDS011;39868;53.398;6.564;2023-04-06T13:23:44;21.42;;;10.68;;
53961;SDS011;39868;53.398;6.564;2023-04-06T13:26:11;21.40;;;11.98;;
53961;SDS011;39868;53.398;6.564;2023-04-06T13:28:40;18.05;;;10.90;;
53961;SDS011;39868;53.398;6.564;2023-04-06T13:31:08;22.52;;;11.77;;
53961;SDS011;39868;53.398;6.564;2023-04-06T13:33:36;19.98;;;11.55;;
53961;SDS011;39868;53.398;6.564;2023-04-06T13:36:05;20.23;;;10.70;;
53961;SDS011;39868;53.398;6.564;2023-04-06T13:38:33;21.75;;;10.63;;
53961;SDS011;39868;53.398;6.564;2023-04-06T13:41:01;26.58;;;11.85;;
53961;SDS011;39868;53.398;6.564;2023-04-06T13:43:28;19.85;;;11.68;;
53961;SDS011;39868;53.398;6.564;2023-04-06T13:45:56;20.77;;;12.85;;
53961;SDS011;39868;53.398;6.564;2023-04-06T13:48:26;18.60;;;10.63;;
53961;SDS011;39868;53.398;6.564;2023-04-06T13:50:54;21.50;;;11.98;;
53961;SDS011;39868;53.398;6.564;2023-04-06T13:53:21;19.83;;;11.07;;
53961;SDS011;39868;53.398;6.564;2023-04-06T13:55:52;20.00;;;10.25;;
53961;SDS011;39868;53.398;6.564;2023-04-06T13:58:23;21.30;;;11.57;;
53961;SDS011;39868;53.398;6.564;2023-04-06T14:00:51;21.15;;;10.88;;
53961;SDS011;39868;53.398;6.564;2023-04-06T14:03:19;21.33;;;10.15;;
53961;SDS011;39868;53.398;6.564;2023-04-06T14:05:48;19.65;;;10.65;;
53961;SDS011;39868;53.398;6.564;2023-04-06T14:08:15;20.45;;;10.65;;
53961;SDS011;39868;53.398;6.564;2023-04-06T14:10:43;20.90;;;11.43;;
53961;SDS011;39868;53.398;6.564;2023-04-06T14:13:10;18.77;;;10.23;;
53961;SDS011;39868;53.398;6.564;2023-04-06T14:15:38;21.98;;;10.82;;
53961;SDS011;39868;53.398;6.564;2023-04-06T14:18:07;18.83;;;10.90;;
53961;SDS011;39868;53.398;6.564;2023-04-06T14:20:35;25.77;;;13.10;;
53961;SDS011;39868;53.398;6.564;2023-04-06T14:23:02;20.85;;;10.35;;
53961;SDS011;39868;53.398;6.564;2023-04-06T14:25:31;18.55;;;9.80;;
53961;SDS011;39868;53.398;6.564;2023-04-06T14:27:59;22.55;;;11.98;;
53961;SDS011;39868;53.398;6.564;2023-04-06T14:30:30;22.60;;;11.63;;
53961;SDS011;39868;53.398;6.564;2023-04-06T14:32:58;16.70;;;9.98;;
53961;SDS011;39868;53.398;6.564;2023-04-06T14:35:25;17.83;;;10.20;;
53961;SDS011;39868;53.398;6.564;2023-04-06T14:37:55;21.38;;;10.40;;
53961;SDS011;39868;53.398;6.564;2023-04-06T14:40:27;17.02;;;8.73;;
53961;SDS011;39868;53.398;6.564;2023-04-06T14:42:56;15.55;;;8.32;;
53961;SDS011;39868;53.398;6.564;2023-04-06T14:45:24;15.65;;;8.48;;
53961;SDS011;39868;53.398;6.564;2023-04-06T14:47:51;17.17;;;8.75;;
53961;SDS011;39868;53.398;6.564;2023-04-06T14:50:19;18.85;;;9.90;;
53961;SDS011;39868;53.398;6.564;2023-04-06T14:52:46;18.27;;;9.15;;
53961;SDS011;39868;53.398;6.564;2023-04-06T14:55:14;13.88;;;8.00;;
53961;SDS011;39868;53.398;6.564;2023-04-06T14:57:42;14.32;;;8.88;;
53961;SDS011;39868;53.398;6.564;2023-04-06T15:00:09;17.55;;;8.60;;
53961;SDS011;39868;53.398;6.564;2023-04-06T15:02:38;13.60;;;7.70;;
53961;SDS011;39868;53.398;6.564;2023-04-06T15:05:06;14.70;;;8.20;;
53961;SDS011;39868;53.398;6.564;2023-04-06T15:07:34;15.18;;;8.35;;